sensor_id;sensor_type;location;lat;lon;timestamp;P1;durP1;ratioP1;P2;durP2;ratioP2
23702;SDS011;12030;50.376;8.762;2022-10-31T00:01:24;10.33;;;5.00;;
23702;SDS011;12030;50.376;8.762;2022-10-31T00:03:52;7.97;;;4.43;;
23702;SDS011;12030;50.376;8.762;2022-10-31T00:06:18;7.07;;;5.10;;
23702;SDS011;12030;50.376;8.762;2022-10-31T00:08:44;9.23;;;5.60;;
23702;SDS011;12030;50.376;8.762;2022-10-31T00:11:11;5.80;;;4.67;;
23702;SDS011;12030;50.376;8.762;2022-10-31T00:13:37;8.47;;;4.87;;
23702;SDS011;12030;50.376;8.762;2022-10-31T00:16:02;8.63;;;5.40;;
23702;SDS011;12030;50.376;8.762;2022-10-31T00:18:28;13.60;;;5.50;;
23702;SDS011;12030;50.376;8.762;2022-10-31T00:21:03;8.23;;;4.83;;
23702;SDS011;12030;50.376;8.762;2022-10-31T00:23:29;14.23;;;5.97;;
23702;SDS011;12030;50.376;8.762;2022-10-31T00:25:59;7.17;;;4.80;;
23702;SDS011;12030;50.376;8.762;2022-10-31T00:28:26;8.93;;;5.00;;
23702;SDS011;12030;50.376;8.762;2022-10-31T00:30:51;9.93;;;6.27;;
23702;SDS011;12030;50.376;8.762;2022-10-31T00:33:17;10.10;;;6.03;;
23702;SDS011;12030;50.376;8.762;2022-10-31T00:35:42;10.90;;;6.50;;
23702;SDS011;12030;50.376;8.762;2022-10-31T00:38:13;9.70;;;6.07;;
23702;SDS011;12030;50.376;8.762;2022-10-31T00:40:39;10.97;;;6.27;;
23702;SDS011;12030;50.376;8.762;2022-10-31T00:43:04;12.50;;;6.17;;
23702;SDS011;12030;50.376;8.762;2022-10-31T00:45:30;13.53;;;8.37;;
23702;SDS011;12030;50.376;8.762;2022-10-31T00:47:55;7.70;;;5.40;;
23702;SDS011;12030;50.376;8.762;2022-10-31T00:50:21;9.70;;;5.57;;
23702;SDS011;12030;50.376;8.762;2022-10-31T00:52:46;8.40;;;5.30;;
23702;SDS011;12030;50.376;8.762;2022-10-31T00:55:12;7.17;;;4.90;;
23702;SDS011;12030;50.376;8.762;2022-10-31T00:57:37;10.67;;;5.30;;
23702;SDS011;12030;50.376;8.762;2022-10-31T01:00:03;10.03;;;5.27;;
23702;SDS011;12030;50.376;8.762;2022-10-31T01:02:29;8.60;;;5.80;;
23702;SDS011;12030;50.376;8.762;2022-10-31T01:04:55;7.73;;;5.30;;
23702;SDS011;12030;50.376;8.762;2022-10-31T01:07:20;9.67;;;5.67;;
23702;SDS011;12030;50.376;8.762;2022-10-31T01:09:46;9.43;;;5.70;;
23702;SDS011;12030;50.376;8.762;2022-10-31T01:12:11;7.13;;;5.37;;
23702;SDS011;12030;50.376;8.762;2022-10-31T01:14:37;10.67;;;5.53;;
23702;SDS011;12030;50.376;8.762;2022-10-31T01:17:02;8.83;;;5.93;;
23702;SDS011;12030;50.376;8.762;2022-10-31T01:19:28;10.80;;;5.70;;
23702;SDS011;12030;50.376;8.762;2022-10-31T01:21:54;9.80;;;4.97;;
23702;SDS011;12030;50.376;8.762;2022-10-31T01:24:20;10.17;;;4.90;;
23702;SDS011;12030;50.376;8.762;2022-10-31T01:26:45;7.50;;;4.77;;
23702;SDS011;12030;50.376;8.762;2022-10-31T01:29:11;8.60;;;5.37;;
23702;SDS011;12030;50.376;8.762;2022-10-31T01:31:37;8.30;;;5.37;;
23702;SDS011;12030;50.376;8.762;2022-10-31T01:34:04;11.00;;;5.47;;
23702;SDS011;12030;50.376;8.762;2022-10-31T01:36:35;7.60;;;5.40;;
23702;SDS011;12030;50.376;8.762;2022-10-31T01:39:03;8.43;;;5.50;;
23702;SDS011;12030;50.376;8.762;2022-10-31T01:41:37;11.77;;;5.60;;
23702;SDS011;12030;50.376;8.762;2022-10-31T01:49:31;7.77;;;4.40;;
23702;SDS011;12030;50.376;8.762;2022-10-31T01:52:07;7.67;;;4.83;;
23702;SDS011;12030;50.376;8.762;2022-10-31T01:54:42;9.27;;;4.90;;
23702;SDS011;12030;50.376;8.762;2022-10-31T01:57:14;9.10;;;4.80;;
23702;SDS011;12030;50.376;8.762;2022-10-31T01:59:42;9.37;;;5.20;;
23702;SDS011;12030;50.376;8.762;2022-10-31T02:02:12;9.67;;;5.00;;
23702;SDS011;12030;50.376;8.762;2022-10-31T02:04:39;6.50;;;4.77;;
23702;SDS011;12030;50.376;8.762;2022-10-31T02:07:07;9.13;;;4.60;;
23702;SDS011;12030;50.376;8.762;2022-10-31T02:09:39;7.60;;;4.97;;
23702;SDS011;12030;50.376;8.762;2022-10-31T02:12:05;6.93;;;4.90;;
23702;SDS011;12030;50.376;8.762;2022-10-31T02:14:33;9.17;;;5.07;;
23702;SDS011;12030;50.376;8.762;2022-10-31T02:17:00;7.70;;;5.03;;
23702;SDS011;12030;50.376;8.762;2022-10-31T02:19:34;6.77;;;5.60;;
23702;SDS011;12030;50.376;8.762;2022-10-31T02:22:33;10.97;;;5.07;;
23702;SDS011;12030;50.376;8.762;2022-10-31T02:25:03;9.47;;;5.10;;
23702;SDS011;12030;50.376;8.762;2022-10-31T02:30:30;10.10;;;5.33;;
23702;SDS011;12030;50.376;8.762;2022-10-31T02:35:54;8.33;;;5.20;;
23702;SDS011;12030;50.376;8.762;2022-10-31T02:41:31;9.63;;;5.43;;
23702;SDS011;12030;50.376;8.762;2022-10-31T02:46:49;8.50;;;4.93;;
23702;SDS011;12030;50.376;8.762;2022-10-31T02:52:17;14.33;;;6.30;;
23702;SDS011;12030;50.376;8.762;2022-10-31T02:54:44;9.80;;;5.20;;
23702;SDS011;12030;50.376;8.762;2022-10-31T02:57:11;12.57;;;5.53;;
23702;SDS011;12030;50.376;8.762;2022-10-31T02:59:45;12.37;;;5.67;;
23702;SDS011;12030;50.376;8.762;2022-10-31T03:02:22;8.80;;;5.20;;
23702;SDS011;12030;50.376;8.762;2022-10-31T03:12:49;8.67;;;5.20;;
23702;SDS011;12030;50.376;8.762;2022-10-31T03:15:37;12.10;;;5.73;;
23702;SDS011;12030;50.376;8.762;2022-10-31T03:18:09;10.27;;;5.43;;
23702;SDS011;12030;50.376;8.762;2022-10-31T03:20:55;8.53;;;5.70;;
23702;SDS011;12030;50.376;8.762;2022-10-31T03:23:28;9.97;;;5.27;;
23702;SDS011;12030;50.376;8.762;2022-10-31T03:25:56;11.50;;;5.53;;
23702;SDS011;12030;50.376;8.762;2022-10-31T03:28:29;5.93;;;4.43;;
23702;SDS011;12030;50.376;8.762;2022-10-31T03:31:03;9.03;;;5.33;;
23702;SDS011;12030;50.376;8.762;2022-10-31T03:33:31;13.60;;;6.23;;
23702;SDS011;12030;50.376;8.762;2022-10-31T03:36:00;12.77;;;5.50;;
23702;SDS011;12030;50.376;8.762;2022-10-31T03:38:29;6.83;;;5.20;;
23702;SDS011;12030;50.376;8.762;2022-10-31T03:40:57;10.53;;;5.37;;
23702;SDS011;12030;50.376;8.762;2022-10-31T03:43:27;9.33;;;5.27;;
23702;SDS011;12030;50.376;8.762;2022-10-31T03:45:57;10.83;;;4.93;;
23702;SDS011;12030;50.376;8.762;2022-10-31T03:48:23;6.93;;;5.03;;
23702;SDS011;12030;50.376;8.762;2022-10-31T03:51:07;11.53;;;5.03;;
23702;SDS011;12030;50.376;8.762;2022-10-31T03:53:49;8.93;;;5.10;;
23702;SDS011;12030;50.376;8.762;2022-10-31T03:59:15;9.57;;;5.23;;
23702;SDS011;12030;50.376;8.762;2022-10-31T04:01:48;6.70;;;4.23;;
23702;SDS011;12030;50.376;8.762;2022-10-31T04:04:17;6.53;;;4.43;;
23702;SDS011;12030;50.376;8.762;2022-10-31T04:06:44;10.00;;;4.50;;
23702;SDS011;12030;50.376;8.762;2022-10-31T04:09:11;9.17;;;5.30;;
23702;SDS011;12030;50.376;8.762;2022-10-31T04:11:43;10.13;;;5.00;;
23702;SDS011;12030;50.376;8.762;2022-10-31T04:14:14;9.90;;;5.50;;
23702;SDS011;12030;50.376;8.762;2022-10-31T04:16:43;11.30;;;5.10;;
23702;SDS011;12030;50.376;8.762;2022-10-31T04:19:09;8.87;;;4.17;;
23702;SDS011;12030;50.376;8.762;2022-10-31T04:21:36;8.93;;;5.07;;
23702;SDS011;12030;50.376;8.762;2022-10-31T04:24:02;14.20;;;4.70;;
23702;SDS011;12030;50.376;8.762;2022-10-31T04:26:27;8.70;;;5.00;;
23702;SDS011;12030;50.376;8.762;2022-10-31T04:28:53;8.93;;;5.00;;
23702;SDS011;12030;50.376;8.762;2022-10-31T04:31:19;6.80;;;5.40;;
23702;SDS011;12030;50.376;8.762;2022-10-31T04:33:45;8.30;;;4.70;;
23702;SDS011;12030;50.376;8.762;2022-10-31T04:36:10;6.33;;;4.30;;
23702;SDS011;12030;50.376;8.762;2022-10-31T04:38:36;7.33;;;4.90;;
23702;SDS011;12030;50.376;8.762;2022-10-31T04:41:02;10.27;;;5.00;;
23702;SDS011;12030;50.376;8.762;2022-10-31T04:43:28;8.20;;;4.70;;
23702;SDS011;12030;50.376;8.762;2022-10-31T04:45:53;9.37;;;4.87;;
23702;SDS011;12030;50.376;8.762;2022-10-31T04:48:19;11.53;;;4.73;;
23702;SDS011;12030;50.376;8.762;2022-10-31T04:50:44;9.27;;;4.83;;
23702;SDS011;12030;50.376;8.762;2022-10-31T04:53:10;9.80;;;5.93;;
23702;SDS011;12030;50.376;8.762;2022-10-31T04:55:36;12.83;;;4.77;;
23702;SDS011;12030;50.376;8.762;2022-10-31T04:58:01;15.00;;;5.03;;
23702;SDS011;12030;50.376;8.762;2022-10-31T05:00:27;8.67;;;4.87;;
23702;SDS011;12030;50.376;8.762;2022-10-31T05:02:54;9.73;;;5.00;;
23702;SDS011;12030;50.376;8.762;2022-10-31T05:05:21;7.57;;;4.77;;
23702;SDS011;12030;50.376;8.762;2022-10-31T05:07:52;8.87;;;4.73;;
23702;SDS011;12030;50.376;8.762;2022-10-31T05:10:19;9.33;;;5.13;;
23702;SDS011;12030;50.376;8.762;2022-10-31T05:12:51;9.33;;;5.03;;
23702;SDS011;12030;50.376;8.762;2022-10-31T05:15:19;8.73;;;5.10;;
23702;SDS011;12030;50.376;8.762;2022-10-31T05:17:46;11.23;;;4.97;;
23702;SDS011;12030;50.376;8.762;2022-10-31T05:20:12;10.23;;;5.13;;
23702;SDS011;12030;50.376;8.762;2022-10-31T05:22:42;9.13;;;4.87;;
23702;SDS011;12030;50.376;8.762;2022-10-31T05:25:09;5.90;;;5.30;;
23702;SDS011;12030;50.376;8.762;2022-10-31T05:27:38;9.53;;;5.40;;
23702;SDS011;12030;50.376;8.762;2022-10-31T05:30:04;8.17;;;4.87;;
23702;SDS011;12030;50.376;8.762;2022-10-31T05:32:35;6.53;;;4.77;;
23702;SDS011;12030;50.376;8.762;2022-10-31T05:35:02;8.00;;;4.80;;
23702;SDS011;12030;50.376;8.762;2022-10-31T05:37:28;9.30;;;5.93;;
23702;SDS011;12030;50.376;8.762;2022-10-31T05:39:53;10.07;;;4.93;;
23702;SDS011;12030;50.376;8.762;2022-10-31T05:42:19;8.63;;;5.60;;
23702;SDS011;12030;50.376;8.762;2022-10-31T05:44:44;8.53;;;5.57;;
23702;SDS011;12030;50.376;8.762;2022-10-31T05:47:10;9.63;;;6.00;;
23702;SDS011;12030;50.376;8.762;2022-10-31T05:49:35;9.17;;;5.63;;
23702;SDS011;12030;50.376;8.762;2022-10-31T05:52:01;11.00;;;6.00;;
23702;SDS011;12030;50.376;8.762;2022-10-31T05:54:26;10.17;;;6.17;;
23702;SDS011;12030;50.376;8.762;2022-10-31T05:56:52;10.57;;;5.90;;
23702;SDS011;12030;50.376;8.762;2022-10-31T05:59:17;8.37;;;6.30;;
23702;SDS011;12030;50.376;8.762;2022-10-31T06:01:43;11.27;;;5.87;;
23702;SDS011;12030;50.376;8.762;2022-10-31T06:04:08;9.70;;;5.57;;
23702;SDS011;12030;50.376;8.762;2022-10-31T06:06:34;8.67;;;5.80;;
23702;SDS011;12030;50.376;8.762;2022-10-31T06:08:59;10.83;;;5.93;;
23702;SDS011;12030;50.376;8.762;2022-10-31T06:11:25;8.43;;;5.33;;
23702;SDS011;12030;50.376;8.762;2022-10-31T06:13:50;11.03;;;5.50;;
23702;SDS011;12030;50.376;8.762;2022-10-31T06:16:16;7.53;;;5.47;;
23702;SDS011;12030;50.376;8.762;2022-10-31T06:18:41;8.57;;;5.13;;
23702;SDS011;12030;50.376;8.762;2022-10-31T06:21:07;8.10;;;5.00;;
23702;SDS011;12030;50.376;8.762;2022-10-31T06:23:33;6.70;;;5.00;;
23702;SDS011;12030;50.376;8.762;2022-10-31T06:25:58;6.87;;;5.30;;
23702;SDS011;12030;50.376;8.762;2022-10-31T06:28:24;6.53;;;5.03;;
23702;SDS011;12030;50.376;8.762;2022-10-31T06:30:49;7.97;;;5.03;;
23702;SDS011;12030;50.376;8.762;2022-10-31T06:33:15;8.53;;;5.63;;
23702;SDS011;12030;50.376;8.762;2022-10-31T06:35:44;11.43;;;5.80;;
23702;SDS011;12030;50.376;8.762;2022-10-31T06:38:11;8.03;;;4.97;;
23702;SDS011;12030;50.376;8.762;2022-10-31T06:40:37;7.60;;;5.23;;
23702;SDS011;12030;50.376;8.762;2022-10-31T06:43:02;6.00;;;5.30;;
23702;SDS011;12030;50.376;8.762;2022-10-31T06:45:28;7.07;;;4.90;;
23702;SDS011;12030;50.376;8.762;2022-10-31T06:47:54;7.23;;;4.93;;
23702;SDS011;12030;50.376;8.762;2022-10-31T06:50:20;7.40;;;4.77;;
23702;SDS011;12030;50.376;8.762;2022-10-31T06:52:53;8.50;;;5.77;;
23702;SDS011;12030;50.376;8.762;2022-10-31T06:55:20;8.27;;;5.17;;
23702;SDS011;12030;50.376;8.762;2022-10-31T06:57:50;6.43;;;5.10;;
23702;SDS011;12030;50.376;8.762;2022-10-31T07:00:16;6.83;;;4.90;;
23702;SDS011;12030;50.376;8.762;2022-10-31T07:02:42;6.90;;;5.17;;
23702;SDS011;12030;50.376;8.762;2022-10-31T07:05:08;10.73;;;5.07;;
23702;SDS011;12030;50.376;8.762;2022-10-31T07:07:33;8.20;;;5.17;;
23702;SDS011;12030;50.376;8.762;2022-10-31T07:09:59;6.67;;;5.47;;
23702;SDS011;12030;50.376;8.762;2022-10-31T07:12:24;7.03;;;5.87;;
23702;SDS011;12030;50.376;8.762;2022-10-31T07:14:50;9.67;;;5.53;;
23702;SDS011;12030;50.376;8.762;2022-10-31T07:17:15;8.00;;;5.93;;
23702;SDS011;12030;50.376;8.762;2022-10-31T07:19:41;8.23;;;5.30;;
23702;SDS011;12030;50.376;8.762;2022-10-31T07:22:06;9.27;;;5.80;;
23702;SDS011;12030;50.376;8.762;2022-10-31T07:24:32;7.53;;;5.43;;
23702;SDS011;12030;50.376;8.762;2022-10-31T07:26:57;7.67;;;5.70;;
23702;SDS011;12030;50.376;8.762;2022-10-31T07:29:23;8.40;;;6.20;;
23702;SDS011;12030;50.376;8.762;2022-10-31T07:31:48;9.47;;;6.30;;
23702;SDS011;12030;50.376;8.762;2022-10-31T07:34:14;8.20;;;5.97;;
23702;SDS011;12030;50.376;8.762;2022-10-31T07:36:39;8.67;;;6.23;;
23702;SDS011;12030;50.376;8.762;2022-10-31T07:39:05;6.87;;;5.50;;
23702;SDS011;12030;50.376;8.762;2022-10-31T07:41:30;8.80;;;6.10;;
23702;SDS011;12030;50.376;8.762;2022-10-31T07:43:56;5.73;;;5.13;;
23702;SDS011;12030;50.376;8.762;2022-10-31T07:46:21;7.67;;;5.77;;
23702;SDS011;12030;50.376;8.762;2022-10-31T07:48:47;7.57;;;6.13;;
23702;SDS011;12030;50.376;8.762;2022-10-31T07:51:13;7.20;;;6.40;;
23702;SDS011;12030;50.376;8.762;2022-10-31T07:53:38;14.00;;;7.40;;
23702;SDS011;12030;50.376;8.762;2022-10-31T07:56:04;13.97;;;7.93;;
23702;SDS011;12030;50.376;8.762;2022-10-31T07:58:29;17.50;;;9.03;;
23702;SDS011;12030;50.376;8.762;2022-10-31T08:00:56;25.13;;;9.33;;
23702;SDS011;12030;50.376;8.762;2022-10-31T08:03:22;23.97;;;9.60;;
23702;SDS011;12030;50.376;8.762;2022-10-31T08:05:48;20.33;;;9.47;;
23702;SDS011;12030;50.376;8.762;2022-10-31T08:08:14;19.97;;;9.90;;
23702;SDS011;12030;50.376;8.762;2022-10-31T08:10:40;18.07;;;9.87;;
23702;SDS011;12030;50.376;8.762;2022-10-31T08:13:07;22.23;;;10.90;;
23702;SDS011;12030;50.376;8.762;2022-10-31T08:15:34;19.87;;;9.47;;
23702;SDS011;12030;50.376;8.762;2022-10-31T08:18:03;21.60;;;11.43;;
23702;SDS011;12030;50.376;8.762;2022-10-31T08:20:29;16.30;;;9.77;;
23702;SDS011;12030;50.376;8.762;2022-10-31T08:25:20;15.63;;;9.70;;
23702;SDS011;12030;50.376;8.762;2022-10-31T08:27:52;17.67;;;9.43;;
23702;SDS011;12030;50.376;8.762;2022-10-31T08:30:19;20.13;;;10.03;;
23702;SDS011;12030;50.376;8.762;2022-10-31T08:32:46;19.00;;;10.77;;
23702;SDS011;12030;50.376;8.762;2022-10-31T08:35:13;19.97;;;10.87;;
23702;SDS011;12030;50.376;8.762;2022-10-31T08:37:39;19.03;;;11.33;;
23702;SDS011;12030;50.376;8.762;2022-10-31T08:40:04;19.27;;;11.60;;
23702;SDS011;12030;50.376;8.762;2022-10-31T08:42:31;18.93;;;10.53;;
23702;SDS011;12030;50.376;8.762;2022-10-31T08:44:57;20.27;;;11.43;;
23702;SDS011;12030;50.376;8.762;2022-10-31T08:47:22;20.83;;;12.27;;
23702;SDS011;12030;50.376;8.762;2022-10-31T08:49:48;18.50;;;11.70;;
23702;SDS011;12030;50.376;8.762;2022-10-31T08:52:13;19.57;;;11.50;;
23702;SDS011;12030;50.376;8.762;2022-10-31T08:54:39;17.87;;;11.57;;
23702;SDS011;12030;50.376;8.762;2022-10-31T08:57:05;21.63;;;12.80;;
23702;SDS011;12030;50.376;8.762;2022-10-31T08:59:30;20.77;;;13.03;;
23702;SDS011;12030;50.376;8.762;2022-10-31T09:01:56;21.73;;;13.20;;
23702;SDS011;12030;50.376;8.762;2022-10-31T09:04:21;19.67;;;13.17;;
23702;SDS011;12030;50.376;8.762;2022-10-31T09:06:47;20.73;;;13.33;;
23702;SDS011;12030;50.376;8.762;2022-10-31T09:09:13;21.97;;;13.70;;
23702;SDS011;12030;50.376;8.762;2022-10-31T09:11:38;21.23;;;13.10;;
23702;SDS011;12030;50.376;8.762;2022-10-31T09:14:04;19.80;;;13.80;;
23702;SDS011;12030;50.376;8.762;2022-10-31T09:16:29;21.30;;;14.30;;
23702;SDS011;12030;50.376;8.762;2022-10-31T09:18:55;24.37;;;13.73;;
23702;SDS011;12030;50.376;8.762;2022-10-31T09:21:20;19.90;;;13.60;;
23702;SDS011;12030;50.376;8.762;2022-10-31T09:23:46;20.43;;;13.60;;
23702;SDS011;12030;50.376;8.762;2022-10-31T09:26:11;20.23;;;13.77;;
23702;SDS011;12030;50.376;8.762;2022-10-31T09:28:37;17.00;;;13.80;;
23702;SDS011;12030;50.376;8.762;2022-10-31T09:31:02;16.73;;;12.77;;
23702;SDS011;12030;50.376;8.762;2022-10-31T09:33:28;15.20;;;12.40;;
23702;SDS011;12030;50.376;8.762;2022-10-31T09:35:53;18.10;;;12.57;;
23702;SDS011;12030;50.376;8.762;2022-10-31T09:38:19;18.40;;;11.50;;
23702;SDS011;12030;50.376;8.762;2022-10-31T09:40:55;15.07;;;11.43;;
23702;SDS011;12030;50.376;8.762;2022-10-31T09:48:52;14.27;;;11.43;;
23702;SDS011;12030;50.376;8.762;2022-10-31T09:51:41;16.47;;;11.63;;
23702;SDS011;12030;50.376;8.762;2022-10-31T09:54:26;15.50;;;11.33;;
23702;SDS011;12030;50.376;8.762;2022-10-31T09:56:59;15.93;;;10.37;;
23702;SDS011;12030;50.376;8.762;2022-10-31T09:59:36;14.50;;;10.50;;
23702;SDS011;12030;50.376;8.762;2022-10-31T10:02:13;11.80;;;9.30;;
23702;SDS011;12030;50.376;8.762;2022-10-31T10:05:01;12.17;;;10.00;;
23702;SDS011;12030;50.376;8.762;2022-10-31T10:07:41;12.60;;;9.83;;
23702;SDS011;12030;50.376;8.762;2022-10-31T10:10:14;11.70;;;9.43;;
23702;SDS011;12030;50.376;8.762;2022-10-31T10:18:41;11.20;;;9.03;;
23702;SDS011;12030;50.376;8.762;2022-10-31T10:26:37;12.03;;;9.50;;
23702;SDS011;12030;50.376;8.762;2022-10-31T10:31:59;12.30;;;9.00;;
23702;SDS011;12030;50.376;8.762;2022-10-31T10:34:34;9.87;;;8.83;;
23702;SDS011;12030;50.376;8.762;2022-10-31T10:37:09;13.37;;;9.50;;
23702;SDS011;12030;50.376;8.762;2022-10-31T10:39:45;11.27;;;9.23;;
23702;SDS011;12030;50.376;8.762;2022-10-31T10:42:15;13.27;;;8.80;;
23702;SDS011;12030;50.376;8.762;2022-10-31T10:45:00;13.33;;;9.10;;
23702;SDS011;12030;50.376;8.762;2022-10-31T10:47:59;11.83;;;8.37;;
23702;SDS011;12030;50.376;8.762;2022-10-31T10:50:48;13.67;;;8.90;;
23702;SDS011;12030;50.376;8.762;2022-10-31T10:55:54;12.17;;;8.83;;
23702;SDS011;12030;50.376;8.762;2022-10-31T10:58:31;14.83;;;8.70;;
23702;SDS011;12030;50.376;8.762;2022-10-31T11:00:56;10.60;;;8.30;;
23702;SDS011;12030;50.376;8.762;2022-10-31T11:03:22;11.20;;;7.90;;
23702;SDS011;12030;50.376;8.762;2022-10-31T11:13:59;12.40;;;7.60;;
23702;SDS011;12030;50.376;8.762;2022-10-31T11:16:35;13.13;;;8.17;;
23702;SDS011;12030;50.376;8.762;2022-10-31T11:19:13;13.47;;;7.97;;
23702;SDS011;12030;50.376;8.762;2022-10-31T11:21:48;11.87;;;7.33;;
23702;SDS011;12030;50.376;8.762;2022-10-31T11:24:22;9.90;;;7.33;;
23702;SDS011;12030;50.376;8.762;2022-10-31T11:26:51;10.27;;;7.17;;
23702;SDS011;12030;50.376;8.762;2022-10-31T11:29:20;13.10;;;7.87;;
23702;SDS011;12030;50.376;8.762;2022-10-31T11:31:51;12.83;;;8.03;;
23702;SDS011;12030;50.376;8.762;2022-10-31T11:36:49;10.67;;;7.27;;
23702;SDS011;12030;50.376;8.762;2022-10-31T11:39:16;11.57;;;7.10;;
23702;SDS011;12030;50.376;8.762;2022-10-31T11:41:47;12.73;;;8.03;;
23702;SDS011;12030;50.376;8.762;2022-10-31T11:44:19;11.57;;;7.57;;
23702;SDS011;12030;50.376;8.762;2022-10-31T11:46:56;12.43;;;7.70;;
23702;SDS011;12030;50.376;8.762;2022-10-31T11:49:40;10.70;;;7.70;;
23702;SDS011;12030;50.376;8.762;2022-10-31T11:52:12;12.40;;;7.93;;
23702;SDS011;12030;50.376;8.762;2022-10-31T11:54:45;10.37;;;7.13;;
23702;SDS011;12030;50.376;8.762;2022-10-31T11:57:31;9.40;;;7.03;;
23702;SDS011;12030;50.376;8.762;2022-10-31T12:00:03;10.53;;;7.33;;
23702;SDS011;12030;50.376;8.762;2022-10-31T12:02:40;11.90;;;7.50;;
23702;SDS011;12030;50.376;8.762;2022-10-31T12:05:07;9.53;;;7.20;;
23702;SDS011;12030;50.376;8.762;2022-10-31T12:07:43;8.70;;;7.07;;
23702;SDS011;12030;50.376;8.762;2022-10-31T12:10:09;11.17;;;7.37;;
23702;SDS011;12030;50.376;8.762;2022-10-31T12:13:11;9.20;;;6.80;;
23702;SDS011;12030;50.376;8.762;2022-10-31T12:16:03;9.60;;;6.90;;
23702;SDS011;12030;50.376;8.762;2022-10-31T12:18:35;9.90;;;6.70;;
23702;SDS011;12030;50.376;8.762;2022-10-31T12:21:19;9.10;;;6.73;;
23702;SDS011;12030;50.376;8.762;2022-10-31T12:23:50;12.17;;;7.40;;
23702;SDS011;12030;50.376;8.762;2022-10-31T12:26:34;11.93;;;6.57;;
23702;SDS011;12030;50.376;8.762;2022-10-31T12:32:20;9.93;;;6.67;;
23702;SDS011;12030;50.376;8.762;2022-10-31T12:51:07;11.07;;;7.03;;
23702;SDS011;12030;50.376;8.762;2022-10-31T12:56:31;14.23;;;7.07;;
23702;SDS011;12030;50.376;8.762;2022-10-31T13:02:09;10.33;;;6.77;;
23702;SDS011;12030;50.376;8.762;2022-10-31T13:10:30;19.37;;;6.60;;
23702;SDS011;12030;50.376;8.762;2022-10-31T13:13:02;9.87;;;6.40;;
23702;SDS011;12030;50.376;8.762;2022-10-31T13:15:34;9.60;;;6.20;;
23702;SDS011;12030;50.376;8.762;2022-10-31T13:18:12;10.93;;;5.47;;
23702;SDS011;12030;50.376;8.762;2022-10-31T13:20:46;12.80;;;5.63;;
23702;SDS011;12030;50.376;8.762;2022-10-31T13:23:29;6.50;;;5.37;;
23702;SDS011;12030;50.376;8.762;2022-10-31T13:25:58;11.37;;;5.30;;
23702;SDS011;12030;50.376;8.762;2022-10-31T13:31:17;12.03;;;5.63;;
23702;SDS011;12030;50.376;8.762;2022-10-31T13:33:45;8.87;;;5.57;;
23702;SDS011;12030;50.376;8.762;2022-10-31T13:36:24;10.60;;;5.73;;
23702;SDS011;12030;50.376;8.762;2022-10-31T13:41:39;10.70;;;5.60;;
23702;SDS011;12030;50.376;8.762;2022-10-31T13:44:10;7.37;;;5.33;;
23702;SDS011;12030;50.376;8.762;2022-10-31T13:46:42;8.50;;;6.10;;
23702;SDS011;12030;50.376;8.762;2022-10-31T13:49:23;7.90;;;5.83;;
23702;SDS011;12030;50.376;8.762;2022-10-31T13:54:36;10.37;;;5.63;;
23702;SDS011;12030;50.376;8.762;2022-10-31T13:57:02;9.70;;;5.67;;
23702;SDS011;12030;50.376;8.762;2022-10-31T13:59:46;9.90;;;5.47;;
23702;SDS011;12030;50.376;8.762;2022-10-31T14:02:17;9.37;;;5.40;;
23702;SDS011;12030;50.376;8.762;2022-10-31T14:04:57;11.70;;;5.50;;
23702;SDS011;12030;50.376;8.762;2022-10-31T14:07:25;7.03;;;5.17;;
23702;SDS011;12030;50.376;8.762;2022-10-31T14:12:39;9.10;;;5.37;;
23702;SDS011;12030;50.376;8.762;2022-10-31T14:17:53;9.30;;;4.97;;
23702;SDS011;12030;50.376;8.762;2022-10-31T14:22:48;9.93;;;5.47;;
23702;SDS011;12030;50.376;8.762;2022-10-31T14:27:54;10.60;;;5.73;;
23702;SDS011;12030;50.376;8.762;2022-10-31T14:30:21;10.13;;;5.80;;
23702;SDS011;12030;50.376;8.762;2022-10-31T14:32:50;13.10;;;5.43;;
23702;SDS011;12030;50.376;8.762;2022-10-31T14:35:18;13.47;;;5.87;;
23702;SDS011;12030;50.376;8.762;2022-10-31T14:41:34;8.27;;;5.27;;
23702;SDS011;12030;50.376;8.762;2022-10-31T14:51:48;6.80;;;5.37;;
23702;SDS011;12030;50.376;8.762;2022-10-31T14:54:20;10.10;;;5.63;;
23702;SDS011;12030;50.376;8.762;2022-10-31T14:57:03;11.63;;;5.53;;
23702;SDS011;12030;50.376;8.762;2022-10-31T14:59:33;11.30;;;5.40;;
23702;SDS011;12030;50.376;8.762;2022-10-31T15:02:08;10.07;;;5.10;;
23702;SDS011;12030;50.376;8.762;2022-10-31T15:04:39;9.23;;;5.80;;
23702;SDS011;12030;50.376;8.762;2022-10-31T15:07:14;9.57;;;5.50;;
23702;SDS011;12030;50.376;8.762;2022-10-31T15:09:44;10.90;;;6.07;;
23702;SDS011;12030;50.376;8.762;2022-10-31T15:12:21;10.17;;;5.40;;
23702;SDS011;12030;50.376;8.762;2022-10-31T15:14:48;12.33;;;5.33;;
23702;SDS011;12030;50.376;8.762;2022-10-31T15:17:14;9.83;;;5.60;;
23702;SDS011;12030;50.376;8.762;2022-10-31T15:19:41;8.13;;;6.33;;
23702;SDS011;12030;50.376;8.762;2022-10-31T15:22:07;11.03;;;6.20;;
23702;SDS011;12030;50.376;8.762;2022-10-31T15:24:39;10.63;;;5.97;;
23702;SDS011;12030;50.376;8.762;2022-10-31T15:27:04;7.50;;;5.53;;
23702;SDS011;12030;50.376;8.762;2022-10-31T15:29:35;8.33;;;5.87;;
23702;SDS011;12030;50.376;8.762;2022-10-31T15:32:09;9.33;;;5.33;;
23702;SDS011;12030;50.376;8.762;2022-10-31T15:34:48;13.00;;;6.70;;
23702;SDS011;12030;50.376;8.762;2022-10-31T15:37:16;9.87;;;6.40;;
23702;SDS011;12030;50.376;8.762;2022-10-31T15:39:46;10.67;;;6.00;;
23702;SDS011;12030;50.376;8.762;2022-10-31T15:42:30;11.27;;;5.90;;
23702;SDS011;12030;50.376;8.762;2022-10-31T15:47:37;8.73;;;5.40;;
23702;SDS011;12030;50.376;8.762;2022-10-31T15:53:06;7.37;;;5.13;;
23702;SDS011;12030;50.376;8.762;2022-10-31T15:55:51;10.67;;;5.30;;
23702;SDS011;12030;50.376;8.762;2022-10-31T15:58:20;8.13;;;5.70;;
23702;SDS011;12030;50.376;8.762;2022-10-31T16:00:56;8.60;;;5.70;;
23702;SDS011;12030;50.376;8.762;2022-10-31T16:03:25;7.13;;;5.40;;
23702;SDS011;12030;50.376;8.762;2022-10-31T16:05:53;10.10;;;5.33;;
23702;SDS011;12030;50.376;8.762;2022-10-31T16:13:38;8.50;;;4.87;;
23702;SDS011;12030;50.376;8.762;2022-10-31T16:16:17;9.37;;;4.80;;
23702;SDS011;12030;50.376;8.762;2022-10-31T16:18:45;7.97;;;5.27;;
23702;SDS011;12030;50.376;8.762;2022-10-31T16:21:11;9.13;;;5.37;;
23702;SDS011;12030;50.376;8.762;2022-10-31T16:23:38;11.80;;;6.37;;
23702;SDS011;12030;50.376;8.762;2022-10-31T16:26:09;9.77;;;5.13;;
23702;SDS011;12030;50.376;8.762;2022-10-31T16:28:39;11.07;;;5.57;;
23702;SDS011;12030;50.376;8.762;2022-10-31T16:31:15;11.20;;;5.03;;
23702;SDS011;12030;50.376;8.762;2022-10-31T16:33:40;11.77;;;5.73;;
23702;SDS011;12030;50.376;8.762;2022-10-31T16:38:53;11.60;;;5.43;;
23702;SDS011;12030;50.376;8.762;2022-10-31T16:41:19;12.17;;;7.53;;
23702;SDS011;12030;50.376;8.762;2022-10-31T16:43:45;10.73;;;7.03;;
23702;SDS011;12030;50.376;8.762;2022-10-31T16:46:31;12.93;;;7.43;;
23702;SDS011;12030;50.376;8.762;2022-10-31T16:48:56;8.03;;;6.20;;
23702;SDS011;12030;50.376;8.762;2022-10-31T16:51:22;11.57;;;9.20;;
23702;SDS011;12030;50.376;8.762;2022-10-31T16:53:48;11.13;;;8.03;;
23702;SDS011;12030;50.376;8.762;2022-10-31T16:56:32;13.27;;;8.57;;
23702;SDS011;12030;50.376;8.762;2022-10-31T16:59:01;14.27;;;11.70;;
23702;SDS011;12030;50.376;8.762;2022-10-31T17:01:29;15.53;;;11.47;;
23702;SDS011;12030;50.376;8.762;2022-10-31T17:03:55;17.03;;;10.67;;
23702;SDS011;12030;50.376;8.762;2022-10-31T17:06:21;14.07;;;11.43;;
23702;SDS011;12030;50.376;8.762;2022-10-31T17:08:46;14.87;;;8.87;;
23702;SDS011;12030;50.376;8.762;2022-10-31T17:11:14;12.60;;;7.97;;
23702;SDS011;12030;50.376;8.762;2022-10-31T17:13:42;11.77;;;8.67;;